sensor_id;sensor_type;location;lat;lon;timestamp;P1;durP1;ratioP1;P2;durP2;ratioP2
75922;SDS011;64602;47.542;19.090;2023-06-10T06:05:26;5.50;;;3.23;;
75922;SDS011;64602;47.542;19.090;2023-06-10T06:10:28;9.90;;;3.60;;
75922;SDS011;64602;47.542;19.090;2023-06-10T06:15:30;4.85;;;3.35;;
75922;SDS011;64602;47.542;19.090;2023-06-10T06:20:32;6.00;;;3.62;;
75922;SDS011;64602;47.542;19.090;2023-06-10T06:25:34;9.63;;;5.20;;
75922;SDS011;64602;47.542;19.090;2023-06-10T06:30:37;6.72;;;4.15;;
75922;SDS011;64602;47.542;19.090;2023-06-10T06:35:39;6.80;;;4.28;;
75922;SDS011;64602;47.542;19.090;2023-06-10T06:40:42;7.10;;;4.53;;
75922;SDS011;64602;47.542;19.090;2023-06-10T06:45:44;7.20;;;4.40;;
75922;SDS011;64602;47.542;19.090;2023-06-10T06:50:46;6.03;;;4.30;;
75922;SDS011;64602;47.542;19.090;2023-06-10T06:55:49;11.00;;;5.90;;
75922;SDS011;64602;47.542;19.090;2023-06-10T07:00:51;7.53;;;4.50;;
75922;SDS011;64602;47.542;19.090;2023-06-10T07:05:53;9.13;;;5.40;;
75922;SDS011;64602;47.542;19.090;2023-06-10T07:10:55;6.45;;;5.03;;
75922;SDS011;64602;47.542;19.090;2023-06-10T07:15:57;7.83;;;5.80;;
75922;SDS011;64602;47.542;19.090;2023-06-10T07:20:59;7.03;;;4.80;;
75922;SDS011;64602;47.542;19.090;2023-06-10T07:26:02;9.40;;;5.40;;
75922;SDS011;64602;47.542;19.090;2023-06-10T07:31:04;7.73;;;5.30;;
75922;SDS011;64602;47.542;19.090;2023-06-10T07:36:06;7.35;;;5.68;;
75922;SDS011;64602;47.542;19.090;2023-06-10T07:41:09;9.13;;;5.70;;
75922;SDS011;64602;47.542;19.090;2023-06-10T07:46:12;7.27;;;5.87;;
75922;SDS011;64602;47.542;19.090;2023-06-10T07:51:15;8.40;;;5.37;;
75922;SDS011;64602;47.542;19.090;2023-06-10T07:56:18;9.65;;;6.18;;
75922;SDS011;64602;47.542;19.090;2023-06-10T08:01:23;6.60;;;5.20;;
75922;SDS011;64602;47.542;19.090;2023-06-10T08:06:26;7.47;;;5.40;;
75922;SDS011;64602;47.542;19.090;2023-06-10T08:11:28;7.97;;;6.22;;
75922;SDS011;64602;47.542;19.090;2023-06-10T08:16:31;7.50;;;6.12;;
75922;SDS011;64602;47.542;19.090;2023-06-10T08:21:33;8.63;;;6.90;;
75922;SDS011;64602;47.542;19.090;2023-06-10T08:26:35;7.95;;;6.70;;
75922;SDS011;64602;47.542;19.090;2023-06-10T08:31:40;8.40;;;7.30;;
75922;SDS011;64602;47.542;19.090;2023-06-10T08:36:44;7.77;;;6.47;;
75922;SDS011;64602;47.542;19.090;2023-06-10T08:47:20;9.43;;;7.30;;
75922;SDS011;64602;47.542;19.090;2023-06-10T08:52:25;9.23;;;7.07;;
75922;SDS011;64602;47.542;19.090;2023-06-10T08:57:31;10.50;;;7.20;;
75922;SDS011;64602;47.542;19.090;2023-06-10T09:02:33;9.40;;;7.25;;
75922;SDS011;64602;47.542;19.090;2023-06-10T09:07:37;8.55;;;7.18;;
75922;SDS011;64602;47.542;19.090;2023-06-10T09:12:40;10.63;;;7.60;;
75922;SDS011;64602;47.542;19.090;2023-06-10T09:17:42;9.38;;;7.25;;
75922;SDS011;64602;47.542;19.090;2023-06-10T09:22:45;10.55;;;8.38;;
75922;SDS011;64602;47.542;19.090;2023-06-10T09:27:50;11.90;;;8.63;;
75922;SDS011;64602;47.542;19.090;2023-06-10T09:32:56;13.47;;;8.40;;
75922;SDS011;64602;47.542;19.090;2023-06-10T09:38:00;11.05;;;8.05;;
75922;SDS011;64602;47.542;19.090;2023-06-10T09:43:04;12.37;;;8.70;;
75922;SDS011;64602;47.542;19.090;2023-06-10T09:48:06;11.57;;;8.50;;
75922;SDS011;64602;47.542;19.090;2023-06-10T09:53:08;15.30;;;8.90;;
75922;SDS011;64602;47.542;19.090;2023-06-10T09:58:12;11.05;;;9.45;;
75922;SDS011;64602;47.542;19.090;2023-06-10T10:03:21;12.43;;;9.97;;
75922;SDS011;64602;47.542;19.090;2023-06-10T10:08:25;13.60;;;10.05;;
75922;SDS011;64602;47.542;19.090;2023-06-10T10:13:27;13.90;;;10.40;;
75922;SDS011;64602;47.542;19.090;2023-06-10T10:18:30;13.53;;;10.57;;
75922;SDS011;64602;47.542;19.090;2023-06-10T10:23:39;13.40;;;11.10;;
75922;SDS011;64602;47.542;19.090;2023-06-10T10:29:14;11.75;;;9.50;;
75922;SDS011;64602;47.542;19.090;2023-06-10T10:34:24;11.98;;;8.82;;
75922;SDS011;64602;47.542;19.090;2023-06-10T10:39:33;11.67;;;9.40;;
75922;SDS011;64602;47.542;19.090;2023-06-10T10:44:40;11.18;;;9.35;;
75922;SDS011;64602;47.542;19.090;2023-06-10T10:49:43;10.05;;;7.70;;
75922;SDS011;64602;47.542;19.090;2023-06-10T10:54:46;8.83;;;7.87;;
75922;SDS011;64602;47.542;19.090;2023-06-10T11:04:53;11.15;;;10.00;;
75922;SDS011;64602;47.542;19.090;2023-06-10T11:10:07;11.50;;;9.37;;
75922;SDS011;64602;47.542;19.090;2023-06-10T11:15:19;12.20;;;8.80;;
75922;SDS011;64602;47.542;19.090;2023-06-10T11:25:46;13.40;;;10.85;;
75922;SDS011;64602;47.542;19.090;2023-06-10T11:30:56;9.63;;;7.60;;
75922;SDS011;64602;47.542;19.090;2023-06-10T11:35:59;9.77;;;7.82;;
75922;SDS011;64602;47.542;19.090;2023-06-10T11:41:02;11.85;;;9.13;;
75922;SDS011;64602;47.542;19.090;2023-06-10T11:46:05;9.37;;;7.83;;
75922;SDS011;64602;47.542;19.090;2023-06-10T11:51:09;16.17;;;13.02;;
75922;SDS011;64602;47.542;19.090;2023-06-10T11:56:12;16.30;;;12.55;;
75922;SDS011;64602;47.542;19.090;2023-06-10T12:01:19;14.90;;;12.40;;
75922;SDS011;64602;47.542;19.090;2023-06-10T12:06:40;8.10;;;7.27;;
75922;SDS011;64602;47.542;19.090;2023-06-10T12:11:50;5.78;;;4.97;;
75922;SDS011;64602;47.542;19.090;2023-06-10T12:16:54;5.15;;;3.37;;
75922;SDS011;64602;47.542;19.090;2023-06-10T12:22:00;4.57;;;3.37;;
75922;SDS011;64602;47.542;19.090;2023-06-10T12:27:02;4.93;;;3.17;;
75922;SDS011;64602;47.542;19.090;2023-06-10T12:32:05;4.75;;;2.58;;
75922;SDS011;64602;47.542;19.090;2023-06-10T12:37:12;3.37;;;2.50;;
75922;SDS011;64602;47.542;19.090;2023-06-10T12:42:15;4.97;;;3.10;;
75922;SDS011;64602;47.542;19.090;2023-06-10T12:47:17;4.75;;;2.60;;
75922;SDS011;64602;47.542;19.090;2023-06-10T12:52:19;4.50;;;2.90;;
75922;SDS011;64602;47.542;19.090;2023-06-10T12:57:22;5.37;;;3.27;;
75922;SDS011;64602;47.542;19.090;2023-06-10T13:02:24;4.60;;;3.10;;
75922;SDS011;64602;47.542;19.090;2023-06-10T13:07:26;3.80;;;2.53;;
75922;SDS011;64602;47.542;19.090;2023-06-10T13:12:28;4.77;;;2.50;;
75922;SDS011;64602;47.542;19.090;2023-06-10T13:17:47;14.70;;;6.72;;
75922;SDS011;64602;47.542;19.090;2023-06-10T13:22:52;17.35;;;7.78;;
75922;SDS011;64602;47.542;19.090;2023-06-10T13:27:54;6.57;;;3.00;;
75922;SDS011;64602;47.542;19.090;2023-06-10T13:32:57;4.95;;;3.10;;
75922;SDS011;64602;47.542;19.090;2023-06-10T13:37:59;5.18;;;2.80;;
75922;SDS011;64602;47.542;19.090;2023-06-10T13:43:01;4.30;;;3.00;;
75922;SDS011;64602;47.542;19.090;2023-06-10T13:48:04;3.47;;;2.57;;
75922;SDS011;64602;47.542;19.090;2023-06-10T13:53:07;4.68;;;2.70;;
75922;SDS011;64602;47.542;19.090;2023-06-10T13:58:09;4.43;;;2.10;;
75922;SDS011;64602;47.542;19.090;2023-06-10T14:03:11;4.90;;;3.30;;
75922;SDS011;64602;47.542;19.090;2023-06-10T14:08:14;3.03;;;1.65;;
75922;SDS011;64602;47.542;19.090;2023-06-10T14:13:16;4.72;;;1.90;;
75922;SDS011;64602;47.542;19.090;2023-06-10T14:18:19;7.10;;;1.90;;
75922;SDS011;64602;47.542;19.090;2023-06-10T14:23:21;4.82;;;2.20;;
75922;SDS011;64602;47.542;19.090;2023-06-10T14:28:23;3.15;;;1.90;;
75922;SDS011;64602;47.542;19.090;2023-06-10T14:33:25;3.30;;;2.07;;
75922;SDS011;64602;47.542;19.090;2023-06-10T14:38:27;4.37;;;2.83;;
75922;SDS011;64602;47.542;19.090;2023-06-10T14:43:30;3.40;;;2.20;;
75922;SDS011;64602;47.542;19.090;2023-06-10T14:48:32;6.47;;;3.05;;
75922;SDS011;64602;47.542;19.090;2023-06-10T14:53:34;4.40;;;2.87;;
75922;SDS011;64602;47.542;19.090;2023-06-10T14:58:36;5.03;;;3.15;;
75922;SDS011;64602;47.542;19.090;2023-06-10T15:03:38;4.47;;;3.15;;
75922;SDS011;64602;47.542;19.090;2023-06-10T15:08:40;5.00;;;2.80;;
75922;SDS011;64602;47.542;19.090;2023-06-10T15:13:43;12.18;;;4.82;;
75922;SDS011;64602;47.542;19.090;2023-06-10T15:18:45;4.35;;;3.00;;
75922;SDS011;64602;47.542;19.090;2023-06-10T15:23:47;4.87;;;2.27;;
75922;SDS011;64602;47.542;19.090;2023-06-10T15:28:49;6.30;;;2.57;;
75922;SDS011;64602;47.542;19.090;2023-06-10T15:33:51;3.67;;;1.70;;
75922;SDS011;64602;47.542;19.090;2023-06-10T15:38:53;2.65;;;1.83;;
75922;SDS011;64602;47.542;19.090;2023-06-10T15:43:57;3.50;;;2.03;;
75922;SDS011;64602;47.542;19.090;2023-06-10T15:49:03;3.20;;;1.80;;
75922;SDS011;64602;47.542;19.090;2023-06-10T15:54:05;3.55;;;1.83;;
75922;SDS011;64602;47.542;19.090;2023-06-10T15:59:07;3.77;;;2.10;;
75922;SDS011;64602;47.542;19.090;2023-06-10T16:04:10;3.17;;;1.83;;
75922;SDS011;64602;47.542;19.090;2023-06-10T16:09:12;5.57;;;2.67;;
75922;SDS011;64602;47.542;19.090;2023-06-10T16:14:15;4.03;;;1.97;;
75922;SDS011;64602;47.542;19.090;2023-06-10T16:19:17;6.27;;;2.60;;
